Berlin Dahlem, Germany

5:21 AM CEST on August 26, 2016 (GMT +0200)
Tegel | | Change Station

Elev 121 ft 52.56 °N, 13.31 °E | Updated 31 minutes ago

Clear
Clear
64 °F
Feels Like 64 °F
N
8
Wind Variable Wind from SE

Today
High -- | Low -- °F
--% Chance of Precip.
Yesterday
High -- | Low -- °F
Precip. -- in
Pressure 30.06 in
Visibility -9999.0 miles
Clouds
Dew Point 54 °F
Humidity 68%
Rainfall 0.00 in
Snow Depth Not available.
6:08 AM 8:07 PM
Last Quarter, 39% visible
METAR EDDT 260250Z 14007KT 110V170 CAVOK 18/12 Q1018 NOSIG
Pressure 30.06 in
Visibility -9999.0 miles
Clouds
Dew Point 54 °F
Humidity 68%
Rainfall 0.00 in
Snow Depth Not available.
6:08 AM 8:07 PM
Last Quarter, 39% visible
METAR EDDT 260250Z 14007KT 110V170 CAVOK 18/12 Q1018 NOSIG

10-Day Weather Forecast

×

Almanac

Astronomy

Aug. 26, 2016 Rise Set
Actual Time
Civil Twilight
Nautical Twilight
Astronomical Twilight
Moon
Length of Visible Light
Length of Day
Tomorrow will be .
, % of the Moon is Illuminated

Today's Extremes

Country Highs Country Lows

Community

WunderPhotos

Upload Photos

1,935,042 photos uploaded!

WunderBlog® & News

Nearby

Air Quality

  Air Quality AQ Index Pollutant
Not available.

Snow Depth

Station Depth Elevation

Earthquake Activity

City Distance Mag. Time & Date
Minimum magnitude displayed is 2.5.

Coastal Water Temperatures

Place Temperature

Stations

Nearby Weather Stations

Station Location Temp. Windchill Dew Point Humidity Wind Precip. Elev Updated Type